createdAt,value
2023-01-22T00:00:39.618Z,0
2023-01-22T00:01:39.640Z,0
2023-01-22T00:02:39.722Z,0
2023-01-22T00:03:39.708Z,0
2023-01-22T00:04:39.627Z,0
2023-01-22T00:05:39.626Z,0
2023-01-22T00:06:39.653Z,0
2023-01-22T00:07:39.627Z,0
2023-01-22T00:08:39.628Z,0
2023-01-22T00:09:39.637Z,0
2023-01-22T00:10:39.633Z,0
2023-01-22T00:11:39.644Z,0
2023-01-22T00:12:39.630Z,0
2023-01-22T00:13:39.654Z,0
2023-01-22T00:14:39.714Z,0
2023-01-22T00:15:39.782Z,0
2023-01-22T00:16:39.648Z,0
2023-01-22T00:17:39.631Z,0
2023-01-22T00:18:39.637Z,0
2023-01-22T00:19:39.627Z,0
2023-01-22T00:20:41.525Z,0
2023-01-22T00:21:39.733Z,0
2023-01-22T00:22:39.622Z,0
2023-01-22T00:23:39.620Z,0
2023-01-22T00:24:39.622Z,0
2023-01-22T00:25:39.616Z,0
2023-01-22T00:26:39.634Z,0
2023-01-22T00:27:39.610Z,0
2023-01-22T00:28:39.614Z,0
2023-01-22T00:29:39.619Z,0
2023-01-22T00:30:39.610Z,0
2023-01-22T00:31:39.721Z,0
2023-01-22T00:32:39.609Z,0
2023-01-22T00:33:39.608Z,0
2023-01-22T00:34:39.614Z,0
2023-01-22T00:35:39.622Z,0
2023-01-22T00:36:39.624Z,0
2023-01-22T00:37:39.630Z,0
2023-01-22T00:38:39.613Z,0
2023-01-22T00:39:39.617Z,0
2023-01-22T00:40:39.611Z,0
2023-01-22T00:41:39.644Z,0
2023-01-22T00:42:39.619Z,0
2023-01-22T00:43:39.657Z,0
2023-01-22T00:44:39.615Z,0
2023-01-22T00:45:39.608Z,0
2023-01-22T00:46:39.740Z,0
2023-01-22T00:47:39.612Z,0
2023-01-22T00:48:39.639Z,0
2023-01-22T00:49:39.619Z,0
2023-01-22T00:50:39.619Z,0
2023-01-22T00:51:39.836Z,0
2023-01-22T00:52:39.626Z,0
2023-01-22T00:53:39.635Z,0
2023-01-22T00:54:39.633Z,0
2023-01-22T00:55:39.624Z,0
2023-01-22T00:56:39.638Z,0
2023-01-22T00:57:39.625Z,0
2023-01-22T00:58:39.641Z,0
2023-01-22T00:59:39.634Z,0
2023-01-22T01:00:39.635Z,0
2023-01-22T01:01:39.753Z,0
2023-01-22T01:02:39.631Z,0
2023-01-22T01:03:39.637Z,0
2023-01-22T01:04:39.626Z,0
2023-01-22T01:05:39.744Z,0
2023-01-22T01:06:39.655Z,0
2023-01-22T01:07:39.641Z,0
2023-01-22T01:08:39.645Z,0
2023-01-22T01:09:39.634Z,0
2023-01-22T01:10:39.638Z,0
2023-01-22T01:11:39.648Z,0
2023-01-22T01:12:39.623Z,0
2023-01-22T01:13:39.627Z,0
2023-01-22T01:14:39.639Z,0
2023-01-22T01:15:39.627Z,0
2023-01-22T01:16:39.641Z,0
2023-01-22T01:17:39.631Z,0
2023-01-22T01:18:39.620Z,0
2023-01-22T01:19:39.653Z,0
2023-01-22T01:20:39.642Z,0
2023-01-22T01:21:39.677Z,0
2023-01-22T01:22:39.626Z,0
2023-01-22T01:23:39.649Z,0
2023-01-22T01:24:39.626Z,0
2023-01-22T01:25:39.629Z,0
2023-01-22T01:26:39.650Z,0
2023-01-22T01:27:39.635Z,0
2023-01-22T01:28:39.625Z,0
2023-01-22T01:29:39.635Z,0
2023-01-22T01:30:39.630Z,0
2023-01-22T01:31:39.761Z,0
2023-01-22T01:32:39.635Z,0
2023-01-22T01:33:39.645Z,0
2023-01-22T01:34:39.638Z,0
2023-01-22T01:35:39.613Z,0
2023-01-22T01:36:48.794Z,0
2023-01-22T01:37:39.637Z,0
2023-01-22T01:38:39.616Z,0
2023-01-22T01:39:39.635Z,0
2023-01-22T01:40:39.615Z,0
2023-01-22T01:41:39.650Z,0
2023-01-22T01:42:39.618Z,0
2023-01-22T01:43:39.614Z,0
2023-01-22T01:44:39.614Z,0
2023-01-22T01:45:39.615Z,0
2023-01-22T01:46:39.672Z,0
2023-01-22T01:47:39.626Z,0
2023-01-22T01:48:39.613Z,0
2023-01-22T01:49:39.621Z,0
2023-01-22T01:50:39.612Z,0
2023-01-22T01:51:39.635Z,0
2023-01-22T01:52:39.649Z,0
2023-01-22T01:53:39.613Z,0
2023-01-22T01:54:39.617Z,0
2023-01-22T01:55:39.614Z,0
2023-01-22T01:56:39.633Z,0
2023-01-22T01:57:39.614Z,0
2023-01-22T01:58:39.611Z,0
2023-01-22T01:59:39.614Z,0
2023-01-22T02:00:39.621Z,0
2023-01-22T02:01:39.660Z,0
2023-01-22T02:02:39.615Z,0
2023-01-22T02:03:39.616Z,0
2023-01-22T02:04:39.622Z,0
2023-01-22T02:05:39.640Z,0
2023-01-22T02:06:39.632Z,0
2023-01-22T02:07:39.609Z,0
2023-01-22T02:08:39.628Z,0
2023-01-22T02:09:39.642Z,0
2023-01-22T02:10:39.638Z,0
2023-01-22T02:11:39.681Z,0
2023-01-22T02:12:39.628Z,0
2023-01-22T02:13:39.635Z,0
2023-01-22T02:14:39.648Z,0
2023-01-22T02:15:39.622Z,0
2023-01-22T02:16:39.739Z,0
2023-01-22T02:17:39.635Z,0
2023-01-22T02:18:39.631Z,0
2023-01-22T02:19:39.659Z,0
2023-01-22T02:20:39.633Z,0
2023-01-22T02:21:39.643Z,0
2023-01-22T02:22:39.630Z,0
2023-01-22T02:23:39.630Z,0
2023-01-22T02:24:39.646Z,0
2023-01-22T02:25:39.629Z,0
2023-01-22T02:26:39.692Z,0
2023-01-22T02:27:39.623Z,0
2023-01-22T02:28:39.635Z,0
2023-01-22T02:29:39.642Z,0
2023-01-22T02:30:39.625Z,0
2023-01-22T02:31:39.730Z,0
2023-01-22T02:32:39.648Z,0
2023-01-22T02:33:39.632Z,0
2023-01-22T02:34:39.646Z,0
2023-01-22T02:35:39.624Z,0
2023-01-22T02:36:39.645Z,0
2023-01-22T02:37:39.633Z,0
2023-01-22T02:38:39.630Z,0
2023-01-22T02:39:39.629Z,0
2023-01-22T02:40:39.630Z,0
2023-01-22T02:41:39.822Z,0
2023-01-22T02:42:39.626Z,0
2023-01-22T02:43:39.638Z,0
2023-01-22T02:44:39.632Z,0
2023-01-22T02:45:39.683Z,0
2023-01-22T02:46:39.648Z,0
2023-01-22T02:47:39.627Z,0
2023-01-22T02:48:39.627Z,0
2023-01-22T02:49:39.638Z,0
2023-01-22T02:50:39.626Z,0
2023-01-22T02:51:39.633Z,0
2023-01-22T02:52:39.610Z,0
2023-01-22T02:53:39.609Z,0
2023-01-22T02:54:39.605Z,0
2023-01-22T02:55:39.614Z,0
2023-01-22T02:56:39.635Z,0
2023-01-22T02:57:39.636Z,0
2023-01-22T02:58:39.618Z,0
2023-01-22T02:59:39.615Z,0
2023-01-22T03:00:39.655Z,0
2023-01-22T03:01:39.630Z,0
2023-01-22T03:02:39.608Z,0
2023-01-22T03:03:39.606Z,0
2023-01-22T03:04:39.611Z,0
2023-01-22T03:05:39.613Z,0
2023-01-22T03:06:39.634Z,0
2023-01-22T03:07:39.605Z,0
2023-01-22T03:08:39.607Z,0
2023-01-22T03:09:39.608Z,0
2023-01-22T03:10:39.610Z,0
2023-01-22T03:11:39.701Z,0
2023-01-22T03:12:39.612Z,0
2023-01-22T03:13:39.609Z,0
2023-01-22T03:14:39.640Z,0
2023-01-22T03:15:39.621Z,0
2023-01-22T03:16:39.688Z,0
2023-01-22T03:17:39.614Z,0
2023-01-22T03:18:39.639Z,0
2023-01-22T03:19:39.641Z,0
2023-01-22T03:20:39.625Z,0
2023-01-22T03:21:39.638Z,0
2023-01-22T03:22:39.635Z,0
2023-01-22T03:23:39.625Z,0
2023-01-22T03:24:39.636Z,0
2023-01-22T03:25:39.629Z,0
2023-01-22T03:26:39.647Z,0
2023-01-22T03:27:39.616Z,0
2023-01-22T03:28:39.626Z,0
2023-01-22T03:29:39.630Z,0
2023-01-22T03:30:39.617Z,0
2023-01-22T03:31:39.745Z,0
2023-01-22T03:32:39.630Z,0
2023-01-22T03:33:39.629Z,0
2023-01-22T03:34:39.621Z,0
2023-01-22T03:35:39.630Z,0
2023-01-22T03:36:39.623Z,0
2023-01-22T03:37:39.622Z,0
2023-01-22T03:38:39.629Z,0
2023-01-22T03:39:39.637Z,0
2023-01-22T03:40:39.623Z,0
2023-01-22T03:41:39.648Z,0
2023-01-22T03:42:39.630Z,0
2023-01-22T03:43:39.626Z,0
2023-01-22T03:44:39.622Z,0
2023-01-22T03:45:39.691Z,0
2023-01-22T03:46:39.640Z,0
2023-01-22T03:47:39.625Z,0
2023-01-22T03:48:39.641Z,0
2023-01-22T03:49:39.638Z,0
2023-01-22T03:50:39.630Z,0
2023-01-22T03:51:39.637Z,0
2023-01-22T03:52:39.625Z,0
2023-01-22T03:53:39.635Z,0
2023-01-22T03:54:39.638Z,0
2023-01-22T03:55:39.650Z,0
2023-01-22T03:56:39.640Z,0
2023-01-22T03:57:39.625Z,0
2023-01-22T03:58:39.646Z,0
2023-01-22T03:59:39.619Z,0
2023-01-22T04:00:39.604Z,0
2023-01-22T04:01:39.641Z,0
2023-01-22T04:02:39.701Z,0
2023-01-22T04:03:39.610Z,0
2023-01-22T04:04:39.635Z,0
2023-01-22T04:05:39.654Z,0
2023-01-22T04:06:39.650Z,0
2023-01-22T04:07:39.605Z,0
2023-01-22T04:08:39.621Z,0
2023-01-22T04:09:39.616Z,0
2023-01-22T04:10:39.631Z,0
2023-01-22T04:11:39.626Z,0
2023-01-22T04:12:39.605Z,0
2023-01-22T04:13:39.607Z,0
2023-01-22T04:14:39.612Z,0
2023-01-22T04:15:39.612Z,0
2023-01-22T04:16:39.650Z,0
2023-01-22T04:17:39.624Z,0
2023-01-22T04:18:39.613Z,0
2023-01-22T04:19:39.617Z,0
2023-01-22T04:20:39.651Z,0
2023-01-22T04:21:39.632Z,0
2023-01-22T04:22:39.608Z,0
2023-01-22T04:23:39.617Z,0
2023-01-22T04:24:39.609Z,0
2023-01-22T04:25:39.617Z,0
2023-01-22T04:26:39.625Z,0
2023-01-22T04:27:39.605Z,0
2023-01-22T04:28:39.620Z,0
2023-01-22T04:29:39.618Z,0
2023-01-22T04:30:39.695Z,0
2023-01-22T04:31:39.753Z,0
2023-01-22T04:32:39.610Z,0
2023-01-22T04:33:39.620Z,0
2023-01-22T04:34:39.629Z,0
2023-01-22T04:35:39.624Z,0
2023-01-22T04:36:39.647Z,0
2023-01-22T04:37:39.633Z,0
2023-01-22T04:38:39.625Z,0
2023-01-22T04:39:39.630Z,0
2023-01-22T04:40:39.633Z,0
2023-01-22T04:41:39.640Z,0
2023-01-22T04:42:39.634Z,0
2023-01-22T04:43:39.624Z,0
2023-01-22T04:44:39.607Z,0
2023-01-22T04:45:39.624Z,0
2023-01-22T04:46:39.642Z,0
2023-01-22T04:47:39.635Z,0
2023-01-22T04:48:39.625Z,0
2023-01-22T04:49:39.623Z,0
2023-01-22T04:50:39.625Z,0
2023-01-22T04:51:39.650Z,0
2023-01-22T04:52:39.623Z,0
2023-01-22T04:53:39.622Z,0
2023-01-22T04:54:39.628Z,0
2023-01-22T04:55:39.635Z,0
2023-01-22T04:56:39.632Z,0
2023-01-22T04:57:39.625Z,0
2023-01-22T04:58:39.632Z,0
2023-01-22T04:59:39.623Z,0
2023-01-22T05:00:39.628Z,0
2023-01-22T05:01:39.727Z,0
2023-01-22T05:02:39.729Z,0
2023-01-22T05:03:39.631Z,0
2023-01-22T05:04:39.632Z,0
2023-01-22T05:05:39.627Z,0
2023-01-22T05:06:39.644Z,0
2023-01-22T05:07:39.628Z,0
2023-01-22T05:08:39.626Z,0
2023-01-22T05:09:39.623Z,0
2023-01-22T05:10:39.604Z,0
2023-01-22T05:11:39.631Z,0
2023-01-22T05:12:39.609Z,0
2023-01-22T05:13:39.611Z,0
2023-01-22T05:14:39.605Z,0
2023-01-22T05:15:39.681Z,0
2023-01-22T05:16:39.626Z,0
2023-01-22T05:17:39.612Z,0
2023-01-22T05:18:39.608Z,0
2023-01-22T05:19:39.616Z,0
2023-01-22T05:20:39.609Z,0
2023-01-22T05:21:39.629Z,0
2023-01-22T05:22:39.607Z,0
2023-01-22T05:23:39.605Z,0
2023-01-22T05:24:39.608Z,0
2023-01-22T05:25:39.611Z,0
2023-01-22T05:26:39.668Z,0
2023-01-22T05:27:39.612Z,0
2023-01-22T05:28:39.615Z,0
2023-01-22T05:29:39.609Z,0
2023-01-22T05:30:39.720Z,0
2023-01-22T05:31:39.673Z,0
2023-01-22T05:32:39.615Z,0
2023-01-22T05:33:39.609Z,0
2023-01-22T05:34:39.611Z,0
2023-01-22T05:35:39.610Z,0
2023-01-22T05:36:39.622Z,0
2023-01-22T05:37:39.607Z,0
2023-01-22T05:38:39.610Z,0
2023-01-22T05:39:39.612Z,0
2023-01-22T05:40:39.619Z,0
2023-01-22T05:41:39.627Z,0
2023-01-22T05:42:39.627Z,0
2023-01-22T05:43:39.646Z,0
2023-01-22T05:44:39.629Z,0
2023-01-22T05:45:39.626Z,0
2023-01-22T05:46:39.642Z,0
2023-01-22T05:47:39.634Z,0
2023-01-22T05:48:39.624Z,0
2023-01-22T05:49:39.623Z,0
2023-01-22T05:50:39.612Z,0
2023-01-22T05:51:39.645Z,0
2023-01-22T05:52:39.639Z,0
2023-01-22T05:53:39.620Z,0
2023-01-22T05:54:39.667Z,0
2023-01-22T05:55:39.633Z,0
2023-01-22T05:56:39.638Z,0
2023-01-22T05:57:39.722Z,0
2023-01-22T05:58:39.630Z,0
2023-01-22T05:59:39.640Z,0
2023-01-22T06:00:39.621Z,0
2023-01-22T06:01:39.637Z,0
2023-01-22T06:02:39.696Z,0
2023-01-22T06:03:39.664Z,0
2023-01-22T06:04:39.626Z,0
2023-01-22T06:05:39.627Z,0
2023-01-22T06:06:39.639Z,0
2023-01-22T06:07:39.625Z,0
2023-01-22T06:08:39.629Z,0
2023-01-22T06:09:39.624Z,0
2023-01-22T06:10:39.608Z,0
2023-01-22T06:11:39.640Z,0
2023-01-22T06:12:39.616Z,0
2023-01-22T06:13:39.629Z,0
2023-01-22T06:14:39.629Z,0
2023-01-22T06:15:39.645Z,0
2023-01-22T06:16:39.639Z,0
2023-01-22T06:17:39.625Z,0
2023-01-22T06:18:39.618Z,0
2023-01-22T06:19:39.627Z,0
2023-01-22T06:20:39.619Z,0
2023-01-22T06:21:39.642Z,0
2023-01-22T06:22:39.631Z,0
2023-01-22T06:23:39.621Z,0
2023-01-22T06:24:39.633Z,0
2023-01-22T06:25:39.647Z,1
2023-01-22T06:26:39.645Z,1
2023-01-22T06:27:39.624Z,3
2023-01-22T06:28:39.611Z,3
2023-01-22T06:29:40.264Z,5
2023-01-22T06:30:39.645Z,5
2023-01-22T06:31:39.836Z,9
2023-01-22T06:32:39.615Z,11
2023-01-22T06:33:39.608Z,12
2023-01-22T06:34:39.618Z,16
2023-01-22T06:35:39.604Z,18
2023-01-22T06:36:42.003Z,20
2023-01-22T06:37:39.608Z,23
2023-01-22T06:38:39.621Z,29
2023-01-22T06:39:39.606Z,33
2023-01-22T06:40:39.610Z,33
2023-01-22T06:41:39.633Z,40
2023-01-22T06:42:39.609Z,46
2023-01-22T06:43:39.612Z,47
2023-01-22T06:44:39.615Z,55
2023-01-22T06:45:39.608Z,58
2023-01-22T06:46:39.672Z,64
2023-01-22T06:47:39.610Z,73
2023-01-22T06:48:39.614Z,82
2023-01-22T06:49:39.609Z,94
2023-01-22T06:50:39.613Z,94
2023-01-22T06:51:39.622Z,108
2023-01-22T06:52:39.606Z,116
2023-01-22T06:53:39.649Z,119
2023-01-22T06:54:39.620Z,136
2023-01-22T06:55:39.622Z,147
2023-01-22T06:56:39.627Z,154
2023-01-22T06:57:39.637Z,158
2023-01-22T06:58:39.612Z,175
2023-01-22T06:59:39.619Z,188
2023-01-22T07:00:39.611Z,202
2023-01-22T07:01:39.722Z,204
2023-01-22T07:02:39.636Z,204
2023-01-22T07:03:39.677Z,223
2023-01-22T07:04:39.624Z,248
2023-01-22T07:05:39.628Z,245
2023-01-22T07:06:39.675Z,252
2023-01-22T07:07:39.622Z,263
2023-01-22T07:08:39.627Z,263
2023-01-22T07:09:39.625Z,263
2023-01-22T07:10:39.611Z,278
2023-01-22T07:11:39.643Z,307
2023-01-22T07:12:39.628Z,313
2023-01-22T07:13:39.630Z,329
2023-01-22T07:14:39.622Z,324
2023-01-22T07:15:39.633Z,324
2023-01-22T07:16:39.657Z,331
2023-01-22T07:17:39.645Z,335
2023-01-22T07:18:39.626Z,326
2023-01-22T07:19:39.634Z,322
2023-01-22T07:20:39.609Z,322
2023-01-22T07:21:39.638Z,307
2023-01-22T07:22:39.628Z,298
2023-01-22T07:23:39.631Z,302
2023-01-22T07:24:39.629Z,317
2023-01-22T07:25:39.723Z,331
2023-01-22T07:26:39.634Z,339
2023-01-22T07:27:39.628Z,350
2023-01-22T07:28:39.669Z,357
2023-01-22T07:29:39.622Z,374
2023-01-22T07:30:39.617Z,372
2023-01-22T07:31:39.792Z,374
2023-01-22T07:32:39.630Z,361
2023-01-22T07:33:39.637Z,372
2023-01-22T07:34:39.629Z,385
2023-01-22T07:35:39.626Z,407
2023-01-22T07:36:39.641Z,401
2023-01-22T07:37:39.629Z,416
2023-01-22T07:38:39.625Z,411
2023-01-22T07:39:39.628Z,399
2023-01-22T07:40:39.610Z,399
2023-01-22T07:41:39.654Z,425
2023-01-22T07:42:39.631Z,435
2023-01-22T07:43:39.605Z,451
2023-01-22T07:44:39.610Z,479
2023-01-22T07:45:39.612Z,499
2023-01-22T07:46:39.685Z,499
2023-01-22T07:47:39.608Z,582
2023-01-22T07:48:39.615Z,615
2023-01-22T07:49:39.610Z,610
2023-01-22T07:50:39.619Z,610
2023-01-22T07:51:39.623Z,652
2023-01-22T07:52:39.612Z,713
2023-01-22T07:53:39.609Z,774
2023-01-22T07:54:39.612Z,853
2023-01-22T07:55:39.605Z,812
2023-01-22T07:56:39.636Z,829
2023-01-22T07:57:39.612Z,750
2023-01-22T07:58:39.608Z,689
2023-01-22T07:59:39.608Z,746
2023-01-22T08:00:39.695Z,746
2023-01-22T08:01:39.652Z,783
2023-01-22T08:02:39.606Z,803
2023-01-22T08:03:39.613Z,772
2023-01-22T08:04:39.628Z,748
2023-01-22T08:05:39.606Z,722
2023-01-22T08:06:39.625Z,748
2023-01-22T08:07:39.611Z,744
2023-01-22T08:08:39.614Z,744
2023-01-22T08:09:39.617Z,728
2023-01-22T08:10:39.606Z,728
2023-01-22T08:11:39.630Z,737
2023-01-22T08:12:39.627Z,739
2023-01-22T08:13:39.625Z,744
2023-01-22T08:14:39.630Z,755
2023-01-22T08:15:39.648Z,772
2023-01-22T08:16:39.699Z,790
2023-01-22T08:17:39.630Z,794
2023-01-22T08:18:39.624Z,787
2023-01-22T08:19:39.627Z,801
2023-01-22T08:20:39.614Z,816
2023-01-22T08:21:39.644Z,844
2023-01-22T08:22:39.625Z,831
2023-01-22T08:23:39.622Z,831
2023-01-22T08:24:39.626Z,812
2023-01-22T08:25:39.635Z,910
2023-01-22T08:26:39.645Z,958
2023-01-22T08:27:39.621Z,975
2023-01-22T08:28:39.630Z,987
2023-01-22T08:29:39.628Z,1004
2023-01-22T08:30:46.051Z,1004
2023-01-22T08:31:39.718Z,989
2023-01-22T08:32:39.689Z,1054
2023-01-22T08:33:39.610Z,1148
2023-01-22T08:34:39.627Z,1192
2023-01-22T08:35:39.637Z,1236
2023-01-22T08:36:39.653Z,1310
2023-01-22T08:37:39.625Z,1402
2023-01-22T08:38:39.634Z,1389
2023-01-22T08:39:39.621Z,1386
2023-01-22T08:40:39.606Z,1386
2023-01-22T08:41:39.650Z,1551
2023-01-22T08:42:39.630Z,1612
2023-01-22T08:43:39.645Z,1747
2023-01-22T08:44:39.625Z,1828
2023-01-22T08:45:39.659Z,1863
2023-01-22T08:46:39.687Z,1863
2023-01-22T08:47:39.626Z,1728
2023-01-22T08:48:39.638Z,1686
2023-01-22T08:49:39.626Z,1614
2023-01-22T08:50:39.605Z,1614
2023-01-22T08:51:39.652Z,1655
2023-01-22T08:52:39.630Z,1810
2023-01-22T08:53:39.607Z,1944
2023-01-22T08:54:39.609Z,2053
2023-01-22T08:55:39.608Z,2211
2023-01-22T08:56:39.627Z,2204
2023-01-22T08:57:39.617Z,2246
2023-01-22T08:58:39.608Z,2278
2023-01-22T08:59:40.442Z,2226
2023-01-22T09:00:39.653Z,2226
2023-01-22T09:01:39.630Z,2198
2023-01-22T09:02:39.612Z,2084
2023-01-22T09:03:39.619Z,2077
2023-01-22T09:04:40.501Z,2248
2023-01-22T09:05:39.606Z,2346
2023-01-22T09:06:39.628Z,2407
2023-01-22T09:07:39.605Z,2390
2023-01-22T09:08:39.607Z,2361
2023-01-22T09:09:39.616Z,2252
2023-01-22T09:10:39.615Z,2252
2023-01-22T09:11:39.635Z,2141
2023-01-22T09:12:39.614Z,2064
2023-01-22T09:13:39.612Z,2033
2023-01-22T09:14:39.609Z,2010
2023-01-22T09:15:39.708Z,2007
2023-01-22T09:16:39.689Z,1999
2023-01-22T09:17:39.624Z,2075
2023-01-22T09:18:39.629Z,2071
2023-01-22T09:19:39.627Z,1983
2023-01-22T09:20:39.607Z,1983
2023-01-22T09:21:39.638Z,1964
2023-01-22T09:22:39.657Z,1918
2023-01-22T09:23:39.643Z,1935
2023-01-22T09:24:39.629Z,2012
2023-01-22T09:25:39.628Z,2077
2023-01-22T09:26:39.642Z,2093
2023-01-22T09:27:39.623Z,2121
2023-01-22T09:28:39.633Z,2088
2023-01-22T09:29:39.629Z,2099
2023-01-22T09:30:39.653Z,2099
2023-01-22T09:31:39.734Z,2092
2023-01-22T09:32:39.623Z,2106
2023-01-22T09:33:39.628Z,2130
2023-01-22T09:34:39.632Z,2132
2023-01-22T09:35:39.623Z,2132
2023-01-22T09:36:39.643Z,2147
2023-01-22T09:37:39.642Z,2143
2023-01-22T09:38:39.630Z,2143
2023-01-22T09:39:39.627Z,2158
2023-01-22T09:40:39.612Z,2158
2023-01-22T09:41:39.641Z,2060
2023-01-22T09:42:39.628Z,2033
2023-01-22T09:43:39.626Z,2049
2023-01-22T09:44:39.627Z,2099
2023-01-22T09:45:39.677Z,2198
2023-01-22T09:46:39.675Z,2318
2023-01-22T09:47:39.625Z,2460
2023-01-22T09:48:39.615Z,2497
2023-01-22T09:49:39.626Z,2523
2023-01-22T09:50:39.615Z,2523
2023-01-22T09:51:39.639Z,2615
2023-01-22T09:52:39.633Z,2611
2023-01-22T09:53:39.651Z,2527
2023-01-22T09:54:39.626Z,2556
2023-01-22T09:55:39.619Z,2587
2023-01-22T09:56:39.645Z,2580
2023-01-22T09:57:39.625Z,2519
2023-01-22T09:58:39.618Z,2493
2023-01-22T09:59:39.626Z,2497
2023-01-22T10:00:39.606Z,2497
2023-01-22T10:01:39.649Z,2492
2023-01-22T10:02:39.695Z,2431
2023-01-22T10:03:39.624Z,2405
2023-01-22T10:04:39.617Z,2399
2023-01-22T10:05:39.612Z,2405
2023-01-22T10:06:39.626Z,2442
2023-01-22T10:07:39.614Z,2399
2023-01-22T10:08:39.609Z,2410
2023-01-22T10:09:39.607Z,2427
2023-01-22T10:10:39.610Z,2427
2023-01-22T10:11:39.630Z,2440
2023-01-22T10:12:39.604Z,2460
2023-01-22T10:13:39.608Z,2416
2023-01-22T10:14:39.622Z,2333
2023-01-22T10:15:39.608Z,2331
2023-01-22T10:16:39.659Z,2342
2023-01-22T10:17:39.611Z,2407
2023-01-22T10:18:39.697Z,2484
2023-01-22T10:19:39.618Z,2644
2023-01-22T10:20:39.603Z,2644
2023-01-22T10:21:39.685Z,2783
2023-01-22T10:22:39.623Z,2864
2023-01-22T10:23:39.614Z,2932
2023-01-22T10:24:39.604Z,2855
2023-01-22T10:25:39.608Z,2750
2023-01-22T10:26:39.642Z,2637
2023-01-22T10:27:39.631Z,2503
2023-01-22T10:28:39.607Z,2368
2023-01-22T10:29:39.742Z,2213
2023-01-22T10:30:39.667Z,2213
2023-01-22T10:31:39.829Z,2097
2023-01-22T10:32:39.627Z,2055
2023-01-22T10:33:39.631Z,2092
2023-01-22T10:34:39.643Z,2066
2023-01-22T10:35:39.632Z,2066
2023-01-22T10:36:39.645Z,1669
2023-01-22T10:37:39.622Z,1601
2023-01-22T10:38:39.624Z,1603
2023-01-22T10:39:39.698Z,1610
2023-01-22T10:40:39.606Z,1610
2023-01-22T10:41:39.647Z,1929
2023-01-22T10:42:39.638Z,2029
2023-01-22T10:43:39.627Z,2034
2023-01-22T10:44:39.640Z,2066
2023-01-22T10:45:39.622Z,2049
2023-01-22T10:46:39.638Z,2012
2023-01-22T10:47:39.625Z,2031
2023-01-22T10:48:39.628Z,1974
2023-01-22T10:49:39.703Z,1846
2023-01-22T10:50:39.625Z,1846
2023-01-22T10:51:39.642Z,1870
2023-01-22T10:52:39.640Z,2014
2023-01-22T10:53:39.623Z,2182
2023-01-22T10:54:39.623Z,2438
2023-01-22T10:55:39.625Z,2519
2023-01-22T10:56:39.742Z,2471
2023-01-22T10:57:39.629Z,2267
2023-01-22T10:58:39.626Z,2114
2023-01-22T10:59:39.630Z,1913
2023-01-22T11:00:51.606Z,1913
2023-01-22T11:01:39.706Z,1900
2023-01-22T11:02:39.791Z,1797
2023-01-22T11:03:39.629Z,1802
2023-01-22T11:04:39.629Z,1787
2023-01-22T11:05:39.624Z,1789
2023-01-22T11:06:39.642Z,1727
2023-01-22T11:07:39.637Z,1651
2023-01-22T11:08:39.632Z,1714
2023-01-22T11:09:39.624Z,1793
2023-01-22T11:10:39.605Z,1793
2023-01-22T11:11:39.652Z,2068
2023-01-22T11:12:39.627Z,2309
2023-01-22T11:13:39.611Z,2617
2023-01-22T11:14:39.608Z,2759
2023-01-22T11:15:39.661Z,2593
2023-01-22T11:16:39.626Z,2532
2023-01-22T11:17:39.615Z,2552
2023-01-22T11:18:39.613Z,2329
2023-01-22T11:19:39.611Z,2316
2023-01-22T11:20:39.615Z,2316
2023-01-22T11:21:39.629Z,2705
2023-01-22T11:22:39.620Z,2619
2023-01-22T11:23:39.613Z,2541
2023-01-22T11:24:39.604Z,2619
2023-01-22T11:25:39.618Z,2477
2023-01-22T11:26:39.625Z,2497
2023-01-22T11:27:39.609Z,2519
2023-01-22T11:28:39.604Z,2414
2023-01-22T11:29:39.617Z,2501
2023-01-22T11:30:39.804Z,2501
2023-01-22T11:31:39.753Z,2617
2023-01-22T11:32:39.611Z,2632
2023-01-22T11:33:39.606Z,2709
2023-01-22T11:34:39.606Z,2654
2023-01-22T11:35:39.609Z,2654
2023-01-22T11:36:39.622Z,2532
2023-01-22T11:37:39.606Z,2595
2023-01-22T11:38:39.607Z,2534
2023-01-22T11:39:39.628Z,2624
2023-01-22T11:40:39.732Z,2624
2023-01-22T11:41:39.648Z,2888
2023-01-22T11:42:39.628Z,2862
2023-01-22T11:43:39.627Z,2871
2023-01-22T11:44:39.633Z,3063
2023-01-22T11:45:39.627Z,3183
2023-01-22T11:46:39.639Z,3216
2023-01-22T11:47:39.629Z,3242
2023-01-22T11:48:40.980Z,3109
2023-01-22T11:49:39.628Z,3011
2023-01-22T11:50:39.604Z,3011
2023-01-22T11:51:39.665Z,2851
2023-01-22T11:52:39.627Z,2720
2023-01-22T11:53:39.630Z,2667
2023-01-22T11:54:39.636Z,2541
2023-01-22T11:55:39.632Z,2327
2023-01-22T11:56:39.645Z,2191
2023-01-22T11:57:39.648Z,2152
2023-01-22T11:58:39.634Z,2193
2023-01-22T11:59:39.633Z,2176
2023-01-22T12:00:39.605Z,2176
2023-01-22T12:01:39.636Z,2080
2023-01-22T12:02:39.719Z,2033
2023-01-22T12:03:39.684Z,2103
2023-01-22T12:04:39.621Z,2104
2023-01-22T12:05:39.622Z,2165
2023-01-22T12:06:39.633Z,2047
2023-01-22T12:07:39.613Z,2053
2023-01-22T12:08:39.614Z,2163
2023-01-22T12:09:39.630Z,2202
2023-01-22T12:10:39.610Z,2202
2023-01-22T12:11:39.632Z,2385
2023-01-22T12:12:39.633Z,2421
2023-01-22T12:13:39.636Z,2364
2023-01-22T12:14:39.641Z,2418
2023-01-22T12:15:39.764Z,2416
2023-01-22T12:16:39.631Z,2449
2023-01-22T12:17:39.621Z,2429
2023-01-22T12:18:39.635Z,2342
2023-01-22T12:19:39.631Z,2398
2023-01-22T12:20:39.602Z,2398
2023-01-22T12:21:40.476Z,2473
2023-01-22T12:22:39.632Z,2226
2023-01-22T12:23:39.622Z,2066
2023-01-22T12:24:39.627Z,2066
2023-01-22T12:25:39.621Z,2093
2023-01-22T12:26:39.622Z,1867
2023-01-22T12:27:39.621Z,2018
2023-01-22T12:28:39.611Z,1784
2023-01-22T12:29:39.606Z,1782
2023-01-22T12:30:39.654Z,1782
2023-01-22T12:31:39.763Z,1795
2023-01-22T12:32:39.614Z,1645
2023-01-22T12:33:39.609Z,1728
2023-01-22T12:34:39.610Z,1675
2023-01-22T12:35:39.604Z,1675
2023-01-22T12:36:39.621Z,1642
2023-01-22T12:37:39.603Z,1651
2023-01-22T12:38:39.613Z,1754
2023-01-22T12:39:39.609Z,1751
2023-01-22T12:40:39.719Z,1751
2023-01-22T12:41:39.648Z,1708
2023-01-22T12:42:39.682Z,1821
2023-01-22T12:43:39.606Z,1900
2023-01-22T12:44:39.620Z,1734
2023-01-22T12:45:39.609Z,1649
2023-01-22T12:46:39.682Z,1623
2023-01-22T12:47:39.609Z,1579
2023-01-22T12:48:39.607Z,1572
2023-01-22T12:49:39.624Z,1518
2023-01-22T12:50:39.604Z,1518
2023-01-22T12:51:39.635Z,1603
2023-01-22T12:52:39.622Z,1507
2023-01-22T12:53:39.630Z,1465
2023-01-22T12:54:39.628Z,1426
2023-01-22T12:55:39.620Z,1391
2023-01-22T12:56:39.637Z,1382
2023-01-22T12:57:39.632Z,1363
2023-01-22T12:58:39.645Z,1380
2023-01-22T12:59:39.623Z,1413
2023-01-22T13:00:39.634Z,1413
2023-01-22T13:01:39.757Z,1363
2023-01-22T13:02:39.627Z,1410
2023-01-22T13:03:39.624Z,1421
2023-01-22T13:04:39.626Z,1426
2023-01-22T13:05:39.636Z,1480
2023-01-22T13:06:39.646Z,1426
2023-01-22T13:07:39.717Z,1511
2023-01-22T13:08:39.673Z,1500
2023-01-22T13:09:39.644Z,1504
2023-01-22T13:10:39.612Z,1504
2023-01-22T13:11:39.657Z,1389
2023-01-22T13:12:39.627Z,1437
2023-01-22T13:13:39.633Z,1439
2023-01-22T13:14:39.627Z,1332
2023-01-22T13:15:39.622Z,1354
2023-01-22T13:16:39.645Z,1432
2023-01-22T13:17:39.625Z,1373
2023-01-22T13:18:39.627Z,1454
2023-01-22T13:19:39.634Z,1411
2023-01-22T13:20:39.625Z,1411
2023-01-22T13:21:39.643Z,1336
2023-01-22T13:22:39.625Z,1332
2023-01-22T13:23:39.615Z,1389
2023-01-22T13:24:39.631Z,1404
2023-01-22T13:25:39.633Z,1467
2023-01-22T13:26:39.654Z,1426
2023-01-22T13:27:39.631Z,1516
2023-01-22T13:28:39.627Z,1583
2023-01-22T13:29:39.633Z,1633
2023-01-22T13:30:39.669Z,1633
2023-01-22T13:31:39.705Z,1585
2023-01-22T13:32:39.626Z,1623
2023-01-22T13:33:39.622Z,1642
2023-01-22T13:34:39.608Z,1762
2023-01-22T13:35:39.619Z,1762
2023-01-22T13:36:39.676Z,1762
2023-01-22T13:37:39.601Z,1806
2023-01-22T13:38:39.615Z,1841
2023-01-22T13:39:39.727Z,1953
2023-01-22T13:40:50.817Z,1953
2023-01-22T13:41:39.630Z,1876
2023-01-22T13:42:39.666Z,1909
2023-01-22T13:43:39.622Z,1959
2023-01-22T13:44:39.615Z,1985
2023-01-22T13:45:39.715Z,2034
2023-01-22T13:46:39.726Z,2016
2023-01-22T13:47:39.604Z,1889
2023-01-22T13:48:39.635Z,1904
2023-01-22T13:49:39.609Z,1881
2023-01-22T13:50:39.615Z,1881
2023-01-22T13:51:39.706Z,1806
2023-01-22T13:52:39.604Z,1806
2023-01-22T13:53:39.615Z,1640
2023-01-22T13:54:39.604Z,1625
2023-01-22T13:55:39.605Z,1609
2023-01-22T13:56:39.623Z,1610
2023-01-22T13:57:39.611Z,1592
2023-01-22T13:58:48.080Z,1710
2023-01-22T13:59:39.618Z,1673
2023-01-22T14:00:39.671Z,1673
2023-01-22T14:01:39.658Z,1645
2023-01-22T14:02:39.624Z,1677